createdAt,value
2018-01-05T00:00:33.985Z,98.60
2018-01-05T00:03:01.599Z,98.60
2018-01-05T00:05:29.201Z,98.50
2018-01-05T00:07:56.786Z,98.40
2018-01-05T00:10:24.390Z,98.30
2018-01-05T00:12:51.964Z,98.30
2018-01-05T00:15:19.587Z,98.00
2018-01-05T00:17:47.176Z,98.00
2018-01-05T00:20:14.787Z,98.10
2018-01-05T00:22:42.375Z,97.80
2018-01-05T00:25:09.977Z,97.50
2018-01-05T00:27:37.562Z,97.10
2018-01-05T00:30:05.175Z,97.10
2018-01-05T00:32:34.589Z,96.60
2018-01-05T00:35:02.967Z,96.40
2018-01-05T00:37:30.550Z,96.40
2018-01-05T00:39:58.187Z,96.40
2018-01-05T00:42:25.766Z,96.40
2018-01-05T00:44:54.126Z,96.10
2018-01-05T00:47:21.725Z,96.10
2018-01-05T00:49:49.300Z,95.90
2018-01-05T00:52:16.914Z,95.70
2018-01-05T00:54:44.498Z,95.80
2018-01-05T00:57:12.111Z,95.70
2018-01-05T00:59:40.458Z,95.70
2018-01-05T01:02:08.057Z,95.70
2018-01-05T01:04:35.652Z,95.80
2018-01-05T01:07:04.419Z,95.70
2018-01-05T01:09:32.006Z,95.70
2018-01-05T01:11:59.619Z,95.40
2018-01-05T01:14:27.201Z,95.70
2018-01-05T01:16:54.787Z,95.30
2018-01-05T01:19:22.400Z,95.40
2018-01-05T01:21:49.997Z,95.40
2018-01-05T01:24:17.594Z,95.60
2018-01-05T01:26:45.937Z,95.10
2018-01-05T01:29:13.547Z,95.10
2018-01-05T01:31:42.274Z,94.30
2018-01-05T01:34:09.898Z,94.50
2018-01-05T01:36:37.475Z,94.60
2018-01-05T01:39:05.090Z,94.70
2018-01-05T01:41:33.955Z,94.60
2018-01-05T01:44:01.648Z,94.30
2018-01-05T01:46:29.278Z,94.30
2018-01-05T01:48:56.871Z,94.50
2018-01-05T01:51:24.475Z,94.40
2018-01-05T01:53:52.066Z,94.30
2018-01-05T01:56:19.702Z,94.40
2018-01-05T01:58:47.286Z,94.20
2018-01-05T02:01:14.893Z,94.20
2018-01-05T02:03:42.482Z,94.40
2018-01-05T02:06:10.089Z,93.60
2018-01-05T02:08:37.695Z,93.30
2018-01-05T02:11:05.282Z,93.60
2018-01-05T02:13:35.114Z,93.20
2018-01-05T02:16:04.316Z,92.90
2018-01-05T02:18:31.967Z,93.20
2018-01-05T02:20:59.554Z,94.00
2018-01-05T02:23:27.166Z,93.60
2018-01-05T02:25:54.757Z,94.10
2018-01-05T02:28:22.384Z,94.30
2018-01-05T02:30:49.956Z,94.30
2018-01-05T02:33:17.573Z,94.30
2018-01-05T02:35:45.946Z,93.70
2018-01-05T02:38:13.536Z,93.70
2018-01-05T02:40:41.156Z,93.50
2018-01-05T02:43:08.735Z,93.30
2018-01-05T02:45:37.118Z,92.80
2018-01-05T02:48:05.479Z,92.90
2018-01-05T02:50:33.144Z,92.80
2018-01-05T02:53:00.734Z,92.60
2018-01-05T02:55:28.321Z,92.30
2018-01-05T02:57:55.928Z,92.10
2018-01-05T03:00:23.505Z,92.10
2018-01-05T03:02:51.110Z,91.60
2018-01-05T03:05:18.747Z,91.40
2018-01-05T03:07:47.105Z,90.90
2018-01-05T03:10:14.682Z,90.80
2018-01-05T03:12:42.290Z,90.30
2018-01-05T03:15:09.865Z,87.40
2018-01-05T03:17:37.478Z,85.50
2018-01-05T03:20:05.831Z,86.70
2018-01-05T03:22:34.615Z,86.70
2018-01-05T03:25:03.055Z,86.50
2018-01-05T03:27:30.644Z,83.40
2018-01-05T03:29:58.254Z,80.10
2018-01-05T03:32:25.857Z,77.20
2018-01-05T03:34:54.242Z,78.90
2018-01-05T03:37:22.973Z,77.00
2018-01-05T03:39:51.349Z,76.60
2018-01-05T03:42:18.936Z,75.60
2018-01-05T03:44:46.514Z,75.90
2018-01-05T03:47:14.130Z,75.50
2018-01-05T03:49:42.858Z,75.20
2018-01-05T03:52:10.460Z,75.80
2018-01-05T03:54:38.800Z,74.60
2018-01-05T03:57:06.403Z,75.90
2018-01-05T03:59:33.979Z,76.40
2018-01-05T04:02:01.609Z,76.90
2018-01-05T04:04:29.193Z,76.90
2018-01-05T04:06:56.786Z,77.20
2018-01-05T04:09:24.399Z,78.50
2018-01-05T04:11:51.979Z,78.70
2018-01-05T04:14:19.627Z,78.60
2018-01-05T04:16:47.974Z,78.50
2018-01-05T04:19:15.583Z,78.30
2018-01-05T04:21:43.157Z,77.70
2018-01-05T04:24:10.761Z,79.40
2018-01-05T04:26:39.183Z,79.10
2018-01-05T04:29:08.366Z,78.20
2018-01-05T04:31:35.983Z,78.00
2018-01-05T04:34:03.567Z,78.00
2018-01-05T04:36:31.171Z,78.50
2018-01-05T04:38:58.752Z,78.60
2018-01-05T04:41:26.357Z,79.20
2018-01-05T04:43:54.708Z,79.10
2018-01-05T04:46:22.319Z,77.10
2018-01-05T04:48:49.909Z,78.80
2018-01-05T04:51:17.522Z,77.80
2018-01-05T04:53:45.875Z,77.50
2018-01-05T04:56:13.462Z,77.40
2018-01-05T04:58:41.070Z,76.80
2018-01-05T05:01:09.843Z,76.80
2018-01-05T05:03:38.754Z,78.00
2018-01-05T05:06:06.343Z,78.50
2018-01-05T05:08:33.941Z,78.30
2018-01-05T05:11:01.517Z,79.90
2018-01-05T05:13:29.118Z,80.60
2018-01-05T05:15:56.722Z,81.60
2018-01-05T05:18:24.338Z,81.00
2018-01-05T05:20:51.922Z,81.40
2018-01-05T05:23:19.530Z,80.90
2018-01-05T05:25:47.114Z,81.30
2018-01-05T05:28:14.719Z,81.20
2018-01-05T05:30:43.070Z,82.90
2018-01-05T05:33:10.671Z,82.90
2018-01-05T05:35:39.459Z,83.90
2018-01-05T05:38:08.436Z,85.00
2018-01-05T05:40:36.036Z,85.10
2018-01-05T05:43:03.615Z,84.80
2018-01-05T05:45:31.242Z,85.10
2018-01-05T05:47:58.828Z,86.20
2018-01-05T05:50:27.252Z,86.50
2018-01-05T05:52:54.833Z,86.50
2018-01-05T05:55:22.438Z,85.50
2018-01-05T05:57:50.018Z,85.50
2018-01-05T06:00:17.639Z,85.60
2018-01-05T06:02:45.228Z,84.50
2018-01-05T06:05:12.818Z,84.50
2018-01-05T06:07:40.426Z,84.50
2018-01-05T06:10:08.587Z,84.50
2018-01-05T06:12:36.203Z,82.50
2018-01-05T06:15:03.787Z,83.30
2018-01-05T06:17:31.396Z,83.70
2018-01-05T06:20:00.010Z,82.60
2018-01-05T06:22:27.675Z,81.80
2018-01-05T06:24:56.027Z,83.30
2018-01-05T06:27:23.611Z,81.40
2018-01-05T06:29:51.219Z,81.70
2018-01-05T06:32:18.811Z,81.90
2018-01-05T06:34:46.418Z,81.90
2018-01-05T06:37:14.753Z,81.80
2018-01-05T06:39:42.358Z,81.70
2018-01-05T06:42:09.940Z,80.80
2018-01-05T06:44:37.742Z,81.30
2018-01-05T06:47:05.323Z,81.10
2018-01-05T06:49:32.932Z,80.50
2018-01-05T06:52:00.726Z,81.60
2018-01-05T06:54:28.312Z,80.20
2018-01-05T06:56:55.913Z,78.90
2018-01-05T06:59:24.262Z,79.80
2018-01-05T07:01:51.867Z,79.70
2018-01-05T07:04:19.446Z,79.30
2018-01-05T07:06:47.054Z,79.70
2018-01-05T07:09:14.625Z,79.50
2018-01-05T07:11:42.249Z,80.40
2018-01-05T07:14:10.592Z,79.50
2018-01-05T07:16:38.201Z,79.40
2018-01-05T07:19:05.779Z,80.00
2018-01-05T07:21:33.353Z,79.20
2018-01-05T07:24:00.963Z,78.20
2018-01-05T07:26:28.543Z,79.60
2018-01-05T07:28:56.150Z,78.30
2018-01-05T07:31:23.726Z,79.30
2018-01-05T07:33:51.332Z,79.50
2018-01-05T07:36:19.678Z,79.30
2018-01-05T07:38:47.299Z,79.30
2018-01-05T07:41:14.886Z,79.80
2018-01-05T07:43:43.674Z,78.90
2018-01-05T07:46:12.023Z,80.00
2018-01-05T07:48:40.370Z,80.60
2018-01-05T07:51:09.332Z,80.60
2018-01-05T07:53:36.956Z,80.50
2018-01-05T07:56:04.566Z,80.00
2018-01-05T07:58:32.151Z,80.10
2018-01-05T08:07:45.452Z,80.80
2018-01-05T08:10:14.679Z,79.10
2018-01-05T08:12:42.304Z,79.70
2018-01-05T08:15:09.888Z,79.90
2018-01-05T08:17:38.866Z,79.30
2018-01-05T08:20:06.449Z,79.80
2018-01-05T08:22:34.866Z,79.30
2018-01-05T08:25:02.459Z,79.30
2018-01-05T08:27:30.070Z,79.10
2018-01-05T08:29:58.420Z,79.50
2018-01-05T08:32:26.035Z,79.50
2018-01-05T08:34:53.623Z,78.90
2018-01-05T08:37:21.206Z,78.60
2018-01-05T08:39:48.811Z,79.20
2018-01-05T08:42:16.400Z,79.00
2018-01-05T08:44:43.996Z,78.90
2018-01-05T08:47:12.342Z,80.20
2018-01-05T08:49:39.941Z,79.70
2018-01-05T08:52:08.443Z,78.80
2018-01-05T08:54:36.052Z,78.10
2018-01-05T08:57:03.635Z,79.20
2018-01-05T08:59:31.234Z,78.60
2018-01-05T09:01:58.823Z,79.00
2018-01-05T09:04:26.410Z,79.10
2018-01-05T09:06:54.006Z,78.80
2018-01-05T09:09:22.362Z,79.60
2018-01-05T09:11:49.966Z,79.60
2018-01-05T09:14:17.558Z,80.00
2018-01-05T09:16:45.153Z,79.70
2018-01-05T09:19:12.725Z,80.30
2018-01-05T09:21:40.332Z,81.30
2018-01-05T09:24:10.220Z,82.30
2018-01-05T09:26:37.827Z,82.30
2018-01-05T09:29:06.180Z,82.20
2018-01-05T09:31:34.537Z,82.40
2018-01-05T09:34:02.157Z,82.30
2018-01-05T09:36:30.510Z,82.50
2018-01-05T09:38:58.118Z,82.40
2018-01-05T09:41:25.702Z,81.90
2018-01-05T09:43:53.315Z,81.80
2018-01-05T09:46:20.911Z,82.40
2018-01-05T09:48:49.293Z,81.90
2018-01-05T09:51:16.875Z,81.90
2018-01-05T09:53:44.490Z,82.60
2018-01-05T09:56:12.071Z,82.90
2018-01-05T09:58:40.404Z,80.70
2018-01-05T10:01:09.374Z,80.60
2018-01-05T10:03:36.982Z,81.30
2018-01-05T10:06:05.348Z,81.90
2018-01-05T10:08:32.918Z,81.40
2018-01-05T10:11:00.532Z,81.40
2018-01-05T10:13:28.114Z,79.80
2018-01-05T10:15:55.755Z,80.90
2018-01-05T10:18:23.331Z,80.00
2018-01-05T10:20:50.947Z,81.30
2018-01-05T10:23:18.535Z,81.70
2018-01-05T10:25:46.114Z,81.30
2018-01-05T10:28:13.717Z,81.30
2018-01-05T10:30:41.303Z,82.20
2018-01-05T10:33:10.053Z,80.80
2018-01-05T10:35:39.166Z,82.00
2018-01-05T10:38:07.915Z,81.90
2018-01-05T10:40:35.514Z,80.30
2018-01-05T10:43:03.127Z,80.60
2018-01-05T10:45:30.727Z,80.90
2018-01-05T10:47:58.738Z,79.60
2018-01-05T10:50:26.305Z,80.20
2018-01-05T10:52:53.882Z,79.00
2018-01-05T10:55:21.497Z,79.60
2018-01-05T10:57:49.082Z,78.90
2018-01-05T11:00:16.691Z,79.50
2018-01-05T11:02:44.264Z,77.50
2018-01-05T11:05:12.668Z,77.60
2018-01-05T11:07:41.027Z,77.00
2018-01-05T11:10:09.707Z,76.40
2018-01-05T11:12:38.533Z,75.80
2018-01-05T11:15:06.887Z,75.00
2018-01-05T11:17:34.503Z,74.50
2018-01-05T11:20:02.097Z,76.10
2018-01-05T11:22:29.704Z,76.60
2018-01-05T11:25:04.958Z,74.70
2018-01-05T11:27:32.571Z,76.00
2018-01-05T11:30:00.150Z,75.20
2018-01-05T11:32:27.754Z,75.00
2018-01-05T11:34:55.339Z,76.00
2018-01-05T11:37:22.927Z,74.60
2018-01-05T11:39:50.539Z,74.60
2018-01-05T11:42:18.121Z,74.30
2018-01-05T11:44:45.734Z,71.20
2018-01-05T11:47:13.370Z,72.20
2018-01-05T11:49:40.983Z,71.50
2018-01-05T11:52:09.616Z,72.10
2018-01-05T11:54:38.197Z,70.70
2018-01-05T11:57:05.816Z,72.10
2018-01-05T11:59:33.431Z,72.60
2018-01-05T12:02:01.051Z,71.50
2018-01-05T12:04:28.684Z,69.90
2018-01-05T12:06:56.275Z,70.60
2018-01-05T12:09:23.858Z,70.80
2018-01-05T12:11:51.472Z,72.40
2018-01-05T12:14:19.851Z,71.50
2018-01-05T12:16:47.452Z,71.40
2018-01-05T12:19:15.798Z,71.60
2018-01-05T12:21:43.403Z,71.60
2018-01-05T12:24:11.003Z,71.60
2018-01-05T12:26:39.759Z,70.70
2018-01-05T12:29:08.886Z,70.80
2018-01-05T12:31:36.472Z,71.40
2018-01-05T12:34:04.124Z,70.80
2018-01-05T12:36:31.711Z,69.60
2018-01-05T12:38:59.323Z,69.50
2018-01-05T12:41:27.679Z,69.50
2018-01-05T12:43:55.292Z,68.70
2018-01-05T12:46:22.869Z,68.70
2018-01-05T12:48:50.487Z,69.90
2018-01-05T12:51:18.833Z,72.20
2018-01-05T12:53:46.450Z,72.20
2018-01-05T12:56:14.017Z,75.40
2018-01-05T12:58:41.591Z,76.90
2018-01-05T13:01:09.199Z,78.10
2018-01-05T13:03:37.561Z,75.40
2018-01-05T13:06:05.174Z,75.90
2018-01-05T13:08:32.754Z,76.70
2018-01-05T13:11:00.358Z,76.80
2018-01-05T13:13:27.945Z,76.10
2018-01-05T13:15:55.558Z,77.90
2018-01-05T13:18:23.903Z,80.30
2018-01-05T13:20:51.512Z,80.30
2018-01-05T13:23:19.117Z,80.60
2018-01-05T13:25:46.701Z,81.50
2018-01-05T13:28:14.314Z,81.40
2018-01-05T13:30:42.654Z,82.50
2018-01-05T13:33:10.254Z,82.40
2018-01-05T13:35:37.834Z,83.30
2018-01-05T13:38:05.439Z,83.90
2018-01-05T13:40:33.020Z,85.10
2018-01-05T13:43:00.643Z,85.00
2018-01-05T13:45:28.997Z,85.60
2018-01-05T13:47:56.654Z,85.60
2018-01-05T13:50:24.264Z,85.20
2018-01-05T13:52:51.862Z,84.40
2018-01-05T13:55:19.471Z,85.70
2018-01-05T13:57:47.065Z,85.30
2018-01-05T14:00:15.441Z,86.90
2018-01-05T14:02:43.013Z,86.10
2018-01-05T14:05:10.620Z,84.50
2018-01-05T14:07:39.490Z,84.70
2018-01-05T14:10:08.279Z,85.30
2018-01-05T14:12:35.877Z,86.00
2018-01-05T14:15:04.226Z,85.10
2018-01-05T14:17:31.834Z,84.30
2018-01-05T14:19:59.435Z,84.10
2018-01-05T14:22:27.036Z,85.30
2018-01-05T14:24:54.617Z,86.30
2018-01-05T14:27:22.212Z,86.70
2018-01-05T14:29:50.557Z,86.80
2018-01-05T14:32:18.168Z,86.70
2018-01-05T14:34:45.750Z,87.10
2018-01-05T14:37:13.354Z,87.30
2018-01-05T14:39:40.935Z,86.20
2018-01-05T14:42:09.772Z,86.50
2018-01-05T14:44:38.643Z,85.70
2018-01-05T14:47:06.229Z,84.10
2018-01-05T14:49:33.855Z,84.30
2018-01-05T14:52:01.432Z,84.70
2018-01-05T14:54:29.039Z,84.60
2018-01-05T14:56:56.626Z,83.90
2018-01-05T14:59:24.245Z,84.20
2018-01-05T15:01:51.815Z,84.20
2018-01-05T15:04:20.180Z,83.90
2018-01-05T15:06:47.785Z,83.90
2018-01-05T15:09:15.367Z,84.00
2018-01-05T15:11:42.974Z,84.40
2018-01-05T15:14:11.323Z,84.10
2018-01-05T15:16:38.983Z,84.10
2018-01-05T15:19:08.207Z,84.50
2018-01-05T15:21:35.865Z,85.10
2018-01-05T15:24:04.216Z,84.90
2018-01-05T15:26:31.812Z,84.90
2018-01-05T15:28:59.385Z,84.10
2018-01-05T15:31:26.988Z,84.10
2018-01-05T15:33:54.570Z,84.40
2018-01-05T15:36:22.182Z,84.30
2018-01-05T15:38:49.773Z,84.50
2018-01-05T15:41:17.352Z,84.40
2018-01-05T15:43:44.963Z,84.40
2018-01-05T15:46:13.313Z,85.00
2018-01-05T15:48:40.906Z,85.00
2018-01-05T15:51:09.634Z,85.00
2018-01-05T15:53:38.347Z,85.30
2018-01-05T15:56:07.807Z,86.30
2018-01-05T15:58:35.423Z,86.30
2018-01-05T16:01:03.002Z,86.60
2018-01-05T16:03:30.584Z,87.00
2018-01-05T16:05:58.197Z,87.50
2018-01-05T16:08:25.778Z,87.70
2018-01-05T16:10:53.372Z,87.80
2018-01-05T16:13:20.956Z,88.20
2018-01-05T16:15:48.584Z,89.00
2018-01-05T16:18:16.935Z,89.20
2018-01-05T16:20:44.544Z,89.20
2018-01-05T16:23:12.122Z,89.10
2018-01-05T16:25:39.739Z,89.40
2018-01-05T16:28:09.002Z,90.00
2018-01-05T16:30:37.725Z,89.90
2018-01-05T16:33:05.327Z,90.30
2018-01-05T16:35:32.915Z,90.50
2018-01-05T16:38:00.522Z,90.40
2018-01-05T16:40:28.104Z,90.10
2018-01-05T16:42:55.718Z,89.60
2018-01-05T16:45:23.289Z,88.90
2018-01-05T16:47:50.899Z,88.80
2018-01-05T16:50:19.383Z,89.40
2018-01-05T16:52:47.015Z,89.70
2018-01-05T16:55:14.644Z,90.10
2018-01-05T16:57:42.221Z,90.10
2018-01-05T17:00:09.826Z,90.10
2018-01-05T17:02:38.889Z,90.10
2018-01-05T17:05:08.469Z,89.80
2018-01-05T17:07:36.059Z,89.80
2018-01-05T17:10:03.675Z,89.50
2018-01-05T17:12:31.272Z,89.80
2018-01-05T17:14:58.901Z,90.10
2018-01-05T17:17:26.498Z,90.00
2018-01-05T17:19:54.103Z,90.10
2018-01-05T17:22:21.718Z,90.30
2018-01-05T17:24:49.327Z,90.50
2018-01-05T17:27:17.713Z,90.60
2018-01-05T17:29:45.293Z,90.60
2018-01-05T17:32:12.894Z,90.40
2018-01-05T17:34:40.461Z,90.40
2018-01-05T17:37:09.299Z,90.40
2018-01-05T17:39:38.688Z,90.70
2018-01-05T17:42:06.261Z,90.70
2018-01-05T17:44:33.872Z,90.70
2018-01-05T17:47:01.839Z,90.70
2018-01-05T17:49:29.450Z,90.80
2018-01-05T17:51:57.027Z,90.80
2018-01-05T17:54:24.672Z,90.70
2018-01-05T17:56:52.261Z,91.30
2018-01-05T17:59:19.881Z,91.40
2018-01-05T18:01:47.475Z,91.10
2018-01-05T18:04:15.126Z,90.90
2018-01-05T18:06:42.718Z,90.90
2018-01-05T18:09:11.118Z,91.00
2018-01-05T18:11:39.947Z,91.00
2018-01-05T18:14:07.852Z,91.00
2018-01-05T18:16:35.494Z,91.30
2018-01-05T18:19:03.090Z,91.30
2018-01-05T18:21:31.466Z,91.70
2018-01-05T18:23:59.283Z,91.70
2018-01-05T18:26:26.881Z,91.60
2018-01-05T18:31:53.496Z,91.70
2018-01-05T18:34:21.075Z,91.80
2018-01-05T18:36:48.690Z,92.00
2018-01-05T18:39:17.038Z,92.10
2018-01-05T18:41:44.671Z,92.10
2018-01-05T18:44:12.259Z,92.50
2018-01-05T18:46:40.602Z,92.40
2018-01-05T18:49:09.232Z,92.40
2018-01-05T18:51:37.350Z,92.30
2018-01-05T18:54:05.011Z,92.60
2018-01-05T18:56:32.590Z,92.40
2018-01-05T18:59:00.213Z,92.40
2018-01-05T19:01:27.799Z,92.60
2018-01-05T19:03:55.420Z,92.40
2018-01-05T19:06:23.006Z,92.10
2018-01-05T19:08:50.606Z,92.60
2018-01-05T19:11:18.187Z,92.80
2018-01-05T19:13:46.624Z,93.40
2018-01-05T19:16:14.958Z,93.30
2018-01-05T19:18:42.566Z,93.20
2018-01-05T19:21:10.926Z,93.30
2018-01-05T19:23:39.294Z,93.30
2018-01-05T19:26:06.998Z,93.60
2018-01-05T19:28:34.593Z,94.80
2018-01-05T19:31:02.203Z,94.10
2018-01-05T19:33:29.783Z,94.80
2018-01-05T19:35:57.407Z,94.80
2018-01-05T19:38:25.764Z,94.10
2018-01-05T19:40:54.145Z,94.50
2018-01-05T19:43:21.719Z,94.50
2018-01-05T19:45:49.330Z,95.00
2018-01-05T19:48:16.983Z,94.60
2018-01-05T19:50:44.592Z,94.70
2018-01-05T19:53:12.944Z,95.30
2018-01-05T19:55:40.534Z,95.30
2018-01-05T19:58:08.853Z,95.40
2018-01-05T20:00:36.448Z,95.20
2018-01-05T20:03:04.852Z,94.60
2018-01-05T20:05:32.435Z,94.60
2018-01-05T20:08:00.058Z,95.00
2018-01-05T20:10:27.643Z,94.70
2018-01-05T20:12:56.029Z,95.30
2018-01-05T20:15:23.623Z,95.30
2018-01-05T20:17:51.244Z,96.40
2018-01-05T20:20:18.849Z,96.50
2018-01-05T20:22:46.479Z,96.00
2018-01-05T20:25:14.084Z,95.90
2018-01-05T20:27:41.709Z,95.80
2018-01-05T20:30:09.665Z,95.50
2018-01-05T20:32:37.914Z,95.40
2018-01-05T20:35:05.527Z,95.40
2018-01-05T20:37:33.123Z,95.20
2018-01-05T20:40:00.736Z,95.60
2018-01-05T20:42:28.314Z,95.70
2018-01-05T20:44:55.932Z,95.80
2018-01-05T20:47:23.514Z,95.90
2018-01-05T20:49:51.127Z,96.00
2018-01-05T20:52:18.706Z,96.20
2018-01-05T20:54:46.316Z,96.00
2018-01-05T20:57:13.903Z,96.20
2018-01-05T20:59:41.494Z,96.10
2018-01-05T21:02:09.870Z,96.30
2018-01-05T21:04:38.570Z,96.30
2018-01-05T21:07:06.183Z,96.40
2018-01-05T21:09:33.775Z,96.50
2018-01-05T21:12:02.192Z,96.30
2018-01-05T21:14:30.538Z,95.80
2018-01-05T21:16:58.141Z,95.80
2018-01-05T21:19:26.495Z,96.00
2018-01-05T21:21:54.103Z,96.30
2018-01-05T21:24:21.694Z,96.30
2018-01-05T21:26:49.326Z,96.10
2018-01-05T21:29:17.347Z,96.20
2018-01-05T21:31:44.979Z,96.40
2018-01-05T21:34:12.570Z,96.40
2018-01-05T21:36:40.160Z,96.50
2018-01-05T21:39:08.181Z,96.50
2018-01-05T21:41:35.786Z,96.50
2018-01-05T21:44:03.412Z,96.60
2018-01-05T21:46:31.007Z,97.00
2018-01-05T21:48:58.622Z,97.20
2018-01-05T21:51:26.210Z,96.90
2018-01-05T21:53:53.844Z,97.50
2018-01-05T21:56:21.440Z,97.60
2018-01-05T21:58:49.818Z,96.60
2018-01-05T22:01:17.413Z,96.50
2018-01-05T22:03:45.047Z,97.10
2018-01-05T22:06:12.622Z,97.60
2018-01-05T22:08:41.184Z,96.90
2018-01-05T22:11:09.681Z,96.90
2018-01-05T22:13:37.912Z,96.70
2018-01-05T22:16:06.365Z,96.90
2018-01-05T22:18:33.964Z,96.80
2018-01-05T22:21:01.583Z,97.10
2018-01-05T22:23:29.177Z,97.20
2018-01-05T22:25:57.578Z,97.10
2018-01-05T22:28:25.190Z,97.10
2018-01-05T22:30:54.292Z,97.10
2018-01-05T22:33:21.883Z,97.10
2018-01-05T22:35:49.509Z,97.20
2018-01-05T22:38:17.103Z,97.20
2018-01-05T22:40:45.451Z,97.60
2018-01-05T22:43:13.064Z,97.90
2018-01-05T22:45:40.657Z,97.20
2018-01-05T22:48:08.984Z,97.30
2018-01-05T22:50:37.790Z,97.60
2018-01-05T22:53:05.408Z,97.40
2018-01-05T22:55:33.784Z,97.40
2018-01-05T22:58:01.403Z,97.40
2018-01-05T23:00:29.817Z,96.90
2018-01-05T23:02:58.190Z,97.00
2018-01-05T23:05:25.779Z,97.00
2018-01-05T23:07:53.391Z,97.00
2018-01-05T23:10:21.751Z,97.20
2018-01-05T23:12:49.375Z,97.20
2018-01-05T23:15:17.716Z,98.10
2018-01-05T23:17:45.313Z,98.10
2018-01-05T23:20:12.927Z,98.00
2018-01-05T23:22:40.514Z,97.50
2018-01-05T23:25:08.609Z,97.20
2018-01-05T23:27:36.192Z,97.40
2018-01-05T23:30:03.819Z,97.60
2018-01-05T23:32:32.164Z,97.80
2018-01-05T23:34:59.783Z,97.80
2018-01-05T23:37:27.366Z,98.20
2018-01-05T23:39:54.990Z,98.90
2018-01-05T23:42:22.579Z,98.90
2018-01-05T23:44:50.206Z,98.50
2018-01-05T23:47:17.838Z,98.40
2018-01-05T23:49:45.524Z,98.30
2018-01-05T23:52:13.878Z,98.20
2018-01-05T23:54:41.497Z,98.20
2018-01-05T23:57:09.448Z,97.90
2018-01-05T23:59:38.119Z,97.90
